Time;durP1;ratioP1;P1;durP2;ratioP2;P2;SDS_P1;SDS_P2;PMS_P1;PMS_P2;Temp;Humidity;BMP_temperature;BMP_pressure;BME280_temperature;BME280_humidity;BME280_pressure;Samples;Min_cycle;Max_cycle;Signal;HPM_P1;HPM_P2
2021/07/19 00:02:21;;;;;;;7.72;3.60;;;21.10;73.10;;;21.10;57.35;95069.38;5038315;28;20250;-86
2021/07/19 00:04:48;;;;;;;4.38;3.53;;;21.10;73.10;;;21.07;56.87;95067.22;5039692;28;20723;-87
2021/07/19 00:07:15;;;;;;;4.75;3.63;;;21.10;73.10;;;21.04;57.06;95064.25;5018838;28;20664;-86
2021/07/19 00:09:46;;;;;;;4.55;3.70;;;21.10;73.00;;;20.97;57.39;95066.31;5049505;28;20261;-86
2021/07/19 00:12:16;;;;;;;4.50;3.90;;;21.10;73.10;;;20.89;57.13;95064.91;5021615;28;20248;-86
2021/07/19 00:14:46;;;;;;;4.60;4.00;;;21.10;73.00;;;20.77;58.08;95065.88;5028505;28;20672;-87
2021/07/19 00:17:16;;;;;;;5.85;3.70;;;21.00;73.10;;;20.71;57.63;95076.72;5027757;28;20747;-87
2021/07/19 00:19:45;;;;;;;5.25;4.10;;;21.00;73.30;;;20.61;58.19;95078.22;5038294;28;20701;-87
2021/07/19 00:22:13;;;;;;;7.13;4.07;;;20.90;73.20;;;20.55;58.33;95081.88;5054235;28;20676;-87
2021/07/19 00:24:41;;;;;;;5.15;4.00;;;20.80;73.40;;;20.49;58.73;95085.53;5038246;28;20264;-86
2021/07/19 00:27:08;;;;;;;4.10;3.53;;;20.70;73.50;;;20.39;58.98;95077.47;5020035;28;20204;-86
2021/07/19 00:29:35;;;;;;;5.28;4.20;;;20.60;73.60;;;20.33;59.00;95076.59;5049001;28;20219;-86
2021/07/19 00:32:04;;;;;;;6.28;4.35;;;20.60;74.10;;;20.26;58.64;95082.13;5037665;28;20253;-86
2021/07/19 00:34:31;;;;;;;6.72;4.15;;;20.50;74.10;;;20.21;59.52;95076.72;5034182;28;20307;-86
2021/07/19 00:36:59;;;;;;;4.78;4.03;;;20.40;74.30;;;20.18;58.96;95079.06;5018159;28;20219;-86
2021/07/19 00:39:27;;;;;;;5.65;4.47;;;20.40;74.20;;;20.12;60.66;95081.66;5030887;28;20223;-86
2021/07/19 00:41:55;;;;;;;6.65;4.50;;;20.40;75.00;;;20.10;60.46;95085.63;5020963;28;20233;-86
2021/07/19 00:44:22;;;;;;;7.53;4.32;;;20.30;75.10;;;20.06;60.56;95087.19;5017098;28;20223;-86
2021/07/19 00:46:53;;;;;;;6.03;3.90;;;20.30;75.20;;;20.02;60.18;95089.53;5001960;28;20194;-86
2021/07/19 00:49:23;;;;;;;4.40;3.92;;;20.20;75.20;;;19.97;59.77;95076.97;5024637;28;20228;-86
2021/07/19 00:51:54;;;;;;;5.97;4.00;;;20.20;75.20;;;19.92;60.09;95079.56;5001702;28;20258;-86
2021/07/19 00:54:24;;;;;;;6.47;4.00;;;20.10;75.00;;;19.88;60.36;95081.09;5013436;28;20224;-86
2021/07/19 00:56:55;;;;;;;4.47;3.97;;;20.10;75.40;;;19.86;60.53;95082.41;5017920;28;20181;-87
2021/07/19 00:59:25;;;;;;;4.93;4.10;;;20.10;75.20;;;19.77;60.85;95066.03;5017700;28;20285;-84
2021/07/19 01:01:55;;;;;;;6.55;4.38;;;20.00;75.60;;;19.75;60.77;95078.75;5001492;28;20207;-86
2021/07/19 01:04:25;;;;;;;5.22;4.35;;;20.00;75.70;;;19.72;61.38;95076.59;5032912;28;20223;-86
2021/07/19 01:06:59;;;;;;;4.95;4.28;;;19.90;75.70;;;19.67;61.47;95074.66;5004544;28;20199;-86
2021/07/19 01:09:30;;;;;;;5.30;4.22;;;19.90;76.20;;;19.64;61.33;95075.97;5034270;28;20696;-86
2021/07/19 01:12:00;;;;;;;4.40;4.00;;;19.80;76.00;;;19.61;61.06;95084.44;5019635;28;20199;-86
2021/07/19 01:14:29;;;;;;;5.70;3.85;;;19.80;76.00;;;19.59;61.05;95072.41;5037217;28;20290;-86
2021/07/19 01:16:57;;;;;;;5.22;4.13;;;19.80;75.90;;;19.56;61.08;95070.25;5017949;28;20646;-85
2021/07/19 01:19:33;;;;;;;5.25;3.60;;;19.70;76.00;;;19.55;60.93;95080.09;4998152;28;20219;-86
2021/07/19 01:22:43;;;;;;;4.95;3.67;;;19.70;76.30;;;19.51;60.75;95086.94;5036810;28;20180;-85
2021/07/19 01:25:47;;;;;;;4.05;3.58;;;19.70;76.40;;;19.48;62.02;95088.25;5020312;28;20223;-86
2021/07/19 01:28:33;;;;;;;5.55;4.18;;;19.70;76.50;;;19.47;61.45;95081.31;5051072;28;20593;-85
2021/07/19 01:31:07;;;;;;;4.60;3.60;;;19.60;76.80;;;19.50;61.69;95086.13;5016963;28;20277;-86
2021/07/19 01:33:37;;;;;;;7.50;3.92;;;19.60;77.40;;;19.50;61.70;95083.47;5006010;28;20230;-86
2021/07/19 01:36:07;;;;;;;5.10;4.20;;;19.60;76.50;;;19.50;61.91;95080.03;5001326;28;20226;-86
2021/07/19 01:38:49;;;;;;;6.70;4.03;;;19.60;76.80;;;19.50;61.67;95088.00;5001282;28;20207;-86
2021/07/19 01:41:19;;;;;;;6.53;4.05;;;19.60;76.70;;;19.48;62.13;95074.94;5020058;28;20282;-85
2021/07/19 01:43:49;;;;;;;4.32;3.83;;;19.60;76.60;;;19.48;62.16;95074.94;5036412;28;20219;-85
2021/07/19 01:46:17;;;;;;;6.28;5.20;;;19.60;76.90;;;19.48;62.52;95076.78;5032492;28;20202;-85
2021/07/19 01:48:47;;;;;;;5.70;4.45;;;19.60;77.20;;;19.46;62.50;95071.72;5001142;28;20238;-85
2021/07/19 01:51:16;;;;;;;5.43;4.53;;;19.60;77.50;;;19.42;63.52;95067.13;5036446;28;20227;-86
2021/07/19 01:53:56;;;;;;;4.70;4.22;;;19.60;77.60;;;19.44;62.57;95070.34;5031921;28;20246;-86
2021/07/19 01:56:29;;;;;;;6.43;4.20;;;19.50;77.50;;;19.44;62.60;95078.34;5020235;28;20200;-85
2021/07/19 01:58:59;;;;;;;6.80;4.03;;;19.50;77.70;;;19.44;62.57;95073.81;5019419;28;20245;-86
2021/07/19 02:01:30;;;;;;;5.00;3.90;;;19.50;77.60;;;19.49;62.50;95079.22;5036393;28;20203;-85
2021/07/19 02:03:59;;;;;;;5.43;4.20;;;19.60;77.70;;;19.55;61.98;95079.28;5019614;28;20219;-86
2021/07/19 02:06:28;;;;;;;4.30;3.67;;;19.50;77.60;;;19.59;62.06;95073.25;5017491;28;20660;-86
2021/07/19 02:09:06;;;;;;;5.15;4.30;;;19.60;77.70;;;19.67;61.91;95080.00;5030894;28;20195;-86
2021/07/19 02:12:05;;;;;;;5.70;4.00;;;19.60;77.80;;;19.73;62.20;95087.00;5015439;28;20212;-86
2021/07/19 02:14:43;;;;;;;5.45;4.00;;;19.60;78.00;;;19.81;62.02;95091.09;5009406;28;20204;-86
2021/07/19 02:17:15;;;;;;;6.07;3.90;;;19.70;78.00;;;19.81;61.69;95085.75;5015975;28;20293;-86
2021/07/19 02:19:48;;;;;;;4.05;3.65;;;19.80;77.80;;;19.92;61.91;95090.22;5016581;28;20247;-86
2021/07/19 02:22:22;;;;;;;4.75;3.78;;;19.80;77.90;;;19.93;62.00;95085.69;5011126;28;20199;-86
2021/07/19 02:25:00;;;;;;;4.32;3.53;;;19.80;77.70;;;20.03;61.89;95093.00;5000502;28;20220;-86
2021/07/19 02:27:44;;;;;;;5.25;4.05;;;19.90;77.70;;;20.03;61.57;95088.50;4998679;28;20200;-85
2021/07/19 02:30:17;;;;;;;7.60;3.67;;;19.90;77.70;;;20.12;61.75;95097.66;4997705;28;20302;-86
2021/07/19 02:32:53;;;;;;;4.18;3.78;;;20.00;77.80;;;20.17;61.37;95088.13;5031996;28;20278;-86
2021/07/19 02:35:25;;;;;;;6.57;3.80;;;20.10;77.80;;;20.19;61.97;95081.50;5031907;28;20225;-86
2021/07/19 02:38:06;;;;;;;6.20;4.00;;;20.10;77.60;;;20.22;61.57;95086.31;5016705;28;20202;-86
2021/07/19 02:40:52;;;;;;;4.78;3.72;;;20.10;77.50;;;20.22;61.70;95085.50;5028445;28;20215;-87
2021/07/19 02:43:23;;;;;;;5.05;3.63;;;20.20;77.60;;;20.28;61.53;95090.63;5033910;28;20274;-86
2021/07/19 02:45:55;;;;;;;6.18;4.18;;;20.20;77.50;;;20.25;61.69;95077.84;5032974;28;20226;-87
2021/07/19 02:48:29;;;;;;;5.93;3.80;;;20.20;77.50;;;20.30;61.98;95077.09;5028288;28;20183;-86
2021/07/19 02:50:59;;;;;;;8.52;4.18;;;20.30;77.60;;;20.31;61.29;95081.34;5002853;28;20223;-86
2021/07/19 02:53:30;;;;;;;4.50;3.70;;;20.30;77.60;;;20.29;61.34;95076.28;5014051;28;20208;-87
2021/07/19 02:56:00;;;;;;;5.43;4.13;;;20.30;77.50;;;20.36;61.19;95086.75;5023105;28;20310;-86
2021/07/19 02:58:30;;;;;;;4.63;3.67;;;20.30;77.40;;;20.39;61.27;95085.44;5017986;28;20196;-87
2021/07/19 03:01:00;;;;;;;4.60;3.53;;;20.30;77.30;;;20.40;61.05;95085.19;4983892;28;20222;-87
2021/07/19 03:03:32;;;;;;;6.72;4.90;;;20.30;77.30;;;20.41;61.18;95093.97;4999432;28;20717;-86
2021/07/19 03:06:04;;;;;;;6.07;4.75;;;20.40;77.40;;;20.39;61.85;95099.56;5010856;28;20246;-86
2021/07/19 03:08:36;;;;;;;4.22;3.80;;;20.40;77.50;;;20.39;61.03;95088.13;4999405;28;20685;-86
2021/07/19 03:11:11;;;;;;;5.72;4.53;;;20.40;77.50;;;20.40;61.31;95095.06;4983601;28;20256;-86
2021/07/19 03:13:44;;;;;;;5.60;4.03;;;20.40;77.40;;;20.41;61.54;95091.31;5031751;28;20195;-87
2021/07/19 03:16:13;;;;;;;4.53;3.80;;;20.40;77.30;;;20.43;61.11;95089.22;5044229;28;20270;-86
2021/07/19 03:18:46;;;;;;;4.57;3.63;;;20.40;77.30;;;20.44;60.72;95088.16;5000956;28;20192;-86
2021/07/19 03:21:17;;;;;;;5.28;3.85;;;20.40;77.20;;;20.44;61.53;95085.50;5000611;28;20295;-85
2021/07/19 03:23:57;;;;;;;6.47;3.83;;;20.40;77.10;;;20.40;60.99;95076.41;5034986;28;20195;-86
2021/07/19 03:26:26;;;;;;;5.35;4.30;;;20.40;77.10;;;20.37;61.73;95076.88;5035123;28;20245;-85
2021/07/19 03:28:55;;;;;;;7.72;4.28;;;20.40;77.30;;;20.33;61.51;95078.44;4999961;28;20203;-86
2021/07/19 03:31:24;;;;;;;5.95;4.32;;;20.40;77.20;;;20.29;61.43;95078.16;4999312;28;20215;-85
2021/07/19 03:33:53;;;;;;;6.65;3.83;;;20.40;77.30;;;20.24;61.69;95078.88;5031503;28;20199;-86
2021/07/19 03:36:25;;;;;;;7.05;4.60;;;20.40;77.30;;;20.19;62.02;95078.00;5027360;28;20203;-86
2021/07/19 03:38:54;;;;;;;5.00;4.10;;;20.30;77.30;;;20.14;62.18;95078.75;5006380;28;20192;-86
2021/07/19 03:41:42;;;;;;;6.32;4.35;;;20.30;77.30;;;20.04;61.98;95070.66;5021649;28;20689;-86
2021/07/19 03:44:11;;;;;;;4.55;4.07;;;20.20;77.40;;;20.06;62.55;95087.19;4986418;28;20210;-86
2021/07/19 03:46:41;;;;;;;5.40;4.53;;;20.20;77.40;;;20.05;62.51;95094.34;4990823;28;20200;-86
2021/07/19 03:49:14;;;;;;;5.35;4.18;;;20.20;77.60;;;20.02;62.19;95089.53;5027663;28;20206;-87
2021/07/19 03:51:48;;;;;;;6.22;4.47;;;20.10;77.60;;;19.98;62.03;95091.88;5022472;28;20569;-87
2021/07/19 03:54:15;;;;;;;5.30;4.28;;;20.10;77.70;;;19.99;62.69;95088.19;5004124;28;20227;-86
2021/07/19 03:56:44;;;;;;;5.63;4.40;;;20.10;77.90;;;20.02;62.96;95091.38;5055349;28;20206;-86
2021/07/19 03:59:16;;;;;;;5.38;4.47;;;20.10;78.00;;;19.98;63.03;95089.22;5038236;28;20288;-86
2021/07/19 04:01:45;;;;;;;5.13;4.53;;;20.10;78.20;;;19.98;62.21;95094.56;5038454;28;20187;-86
2021/07/19 04:04:19;;;;;;;6.05;4.72;;;20.00;78.10;;;19.99;63.27;95088.19;5005088;28;20219;-86
2021/07/19 04:06:52;;;;;;;6.43;4.57;;;20.00;78.30;;;19.98;63.30;95093.72;5020774;28;20254;-86
2021/07/19 04:09:21;;;;;;;4.50;3.97;;;20.00;78.20;;;20.00;63.05;95092.44;5018378;28;20220;-87
2021/07/19 04:11:51;;;;;;;5.97;4.00;;;20.00;78.20;;;20.02;62.65;95094.03;5016933;28;20231;-86
2021/07/19 04:14:21;;;;;;;7.05;4.63;;;20.00;78.20;;;20.05;62.50;95096.22;5021744;28;20311;-87
2021/07/19 04:16:51;;;;;;;7.07;4.75;;;20.00;78.30;;;20.06;62.35;95098.63;5016678;28;20199;-87
2021/07/19 04:19:24;;;;;;;6.22;4.35;;;20.10;78.40;;;20.07;62.31;95100.25;5037455;28;20223;-86
2021/07/19 04:21:52;;;;;;;7.25;4.85;;;20.10;78.40;;;20.08;62.80;95098.38;5034227;28;20206;-86
2021/07/19 04:24:27;;;;;;;5.25;4.13;;;20.10;78.30;;;20.05;62.68;95104.22;5010257;28;20227;-87
2021/07/19 04:26:55;;;;;;;7.13;4.50;;;20.10;78.30;;;20.05;62.81;95099.69;5037862;28;20223;-86
2021/07/19 04:29:24;;;;;;;4.45;3.83;;;20.10;78.40;;;20.03;62.97;95103.66;5037575;28;20219;-87
2021/07/19 04:31:58;;;;;;;5.18;4.53;;;20.10;78.30;;;19.98;62.48;95105.19;5015324;28;20275;-86
2021/07/19 04:34:35;;;;;;;5.03;4.43;;;20.10;78.30;;;19.96;62.47;95107.28;5017721;28;20619;-86
2021/07/19 04:37:09;;;;;;;5.07;4.47;;;20.10;78.30;;;19.93;63.03;95112.31;5021770;28;20222;-86
2021/07/19 04:39:45;;;;;;;5.03;4.50;;;20.00;78.40;;;19.91;63.06;95112.56;5020620;28;20211;-87
2021/07/19 04:42:18;;;;;;;5.05;4.53;;;20.00;78.40;;;19.92;63.58;95113.34;5021236;28;20233;-87
2021/07/19 04:44:46;;;;;;;5.35;4.10;;;20.00;78.50;;;19.92;63.50;95102.69;5020913;28;20223;-86
2021/07/19 04:47:13;;;;;;;6.93;4.40;;;20.00;78.70;;;19.95;62.83;95103.03;5019822;28;20667;-86
2021/07/19 04:49:41;;;;;;;4.50;4.00;;;20.00;78.80;;;20.03;63.50;95106.31;5034858;28;20219;-86
2021/07/19 04:52:09;;;;;;;6.40;4.47;;;20.00;78.90;;;20.03;63.09;95104.47;5037420;28;20322;-86
2021/07/19 04:54:38;;;;;;;6.57;4.60;;;20.00;78.90;;;20.02;63.28;95096.72;5021058;28;20219;-87
2021/07/19 04:57:14;;;;;;;6.47;4.97;;;20.00;78.70;;;19.99;63.46;95101.50;5020976;28;20202;-86
2021/07/19 04:59:51;;;;;;;5.00;4.50;;;20.00;78.70;;;19.94;62.95;95112.06;5036273;28;20223;-87
2021/07/19 05:02:21;;;;;;;6.25;4.63;;;20.00;78.70;;;19.91;62.85;95117.06;5053849;28;20179;-85
2021/07/19 05:04:52;;;;;;;7.13;4.70;;;20.00;78.60;;;19.87;63.22;95106.09;5020815;28;20221;-87
2021/07/19 05:07:24;;;;;;;7.32;5.00;;;20.00;78.70;;;19.82;63.89;95106.81;5004297;28;20684;-86
2021/07/19 05:09:52;;;;;;;7.03;4.63;;;19.90;78.70;;;19.79;63.93;95101.97;5018164;28;20223;-86
2021/07/19 05:12:22;;;;;;;5.70;5.10;;;19.90;78.80;;;19.80;63.60;95103.59;5036964;28;20682;-86
2021/07/19 05:14:50;;;;;;;5.85;5.13;;;19.90;78.90;;;19.81;63.37;95105.22;5037303;28;20214;-86
2021/07/19 05:17:20;;;;;;;6.03;4.85;;;19.90;78.90;;;19.82;63.86;95103.34;5032101;28;20727;-87
2021/07/19 05:19:48;;;;;;;5.88;4.70;;;19.90;79.10;;;19.83;63.89;95089.84;5036923;28;20211;-87
2021/07/19 05:22:16;;;;;;;6.45;5.07;;;19.90;79.30;;;19.94;64.02;95087.31;5048884;28;20218;-86
2021/07/19 05:24:44;;;;;;;7.97;4.53;;;19.90;79.60;;;20.02;63.48;95089.53;5025938;28;20207;-86
2021/07/19 05:27:15;;;;;;;6.15;4.70;;;19.90;79.60;;;20.10;63.41;95089.13;5018331;28;20748;-86
2021/07/19 05:29:43;;;;;;;6.03;4.93;;;19.90;79.60;;;20.19;63.35;95099.31;5020803;28;20228;-85
2021/07/19 05:32:10;;;;;;;6.68;4.78;;;20.00;79.60;;;20.23;63.80;95092.47;5016925;28;20235;-86
2021/07/19 05:34:37;;;;;;;9.25;5.13;;;20.10;80.40;;;20.29;63.25;95086.94;4984383;28;20220;-86
2021/07/19 05:37:05;;;;;;;7.05;4.85;;;20.10;79.50;;;20.37;62.83;95091.00;5009792;28;20202;-85
2021/07/19 05:39:33;;;;;;;6.07;4.57;;;20.20;79.40;;;20.40;62.65;95084.41;5020116;28;20317;-86
2021/07/19 05:42:00;;;;;;;5.32;4.07;;;20.20;79.20;;;20.44;62.71;95093.50;5053112;28;20241;-87
2021/07/19 05:44:27;;;;;;;6.47;4.65;;;20.30;79.20;;;20.44;62.98;95088.94;5036711;28;20695;-86
2021/07/19 05:46:54;;;;;;;6.82;4.43;;;20.30;78.90;;;20.43;62.82;95084.72;5035447;28;20191;-86
2021/07/19 05:49:22;;;;;;;4.55;4.10;;;20.30;79.00;;;20.51;62.43;95095.94;5014261;28;20674;-86
2021/07/19 05:51:49;;;;;;;4.90;4.20;;;20.40;79.00;;;20.52;62.69;95084.25;5030324;28;20211;-86
2021/07/19 05:54:16;;;;;;;4.43;3.85;;;20.40;79.00;;;20.59;62.88;95085.66;5014994;28;20270;-86
2021/07/19 05:56:43;;;;;;;5.65;4.47;;;20.40;79.20;;;20.66;62.81;95087.34;5017838;28;20278;-86
2021/07/19 05:59:10;;;;;;;4.15;3.65;;;20.40;79.20;;;20.71;62.43;95090.84;5016453;28;20196;-86
2021/07/19 06:01:37;;;;;;;4.28;3.88;;;20.50;79.20;;;20.80;62.58;95096.56;5012855;28;20215;-84
2021/07/19 06:04:05;;;;;;;3.95;3.55;;;20.50;79.10;;;20.79;62.39;95087.75;5008090;28;20291;-84
2021/07/19 06:06:32;;;;;;;6.75;4.00;;;20.60;79.00;;;20.79;62.55;95081.63;5023281;28;20266;-84
2021/07/19 06:09:00;;;;;;;5.07;3.95;;;20.60;78.90;;;20.86;62.21;95084.91;5004243;28;20373;-84
2021/07/19 06:11:27;;;;;;;8.60;3.70;;;20.60;79.00;;;20.96;62.26;95092.19;5015970;28;20306;-85
2021/07/19 06:13:54;;;;;;;5.57;3.53;;;20.70;79.20;;;21.06;62.23;95086.13;5035198;28;20192;-85
2021/07/19 06:16:22;;;;;;;4.35;3.95;;;20.80;79.40;;;21.14;62.53;95080.34;5034016;28;20261;-83
2021/07/19 06:18:49;;;;;;;4.88;3.88;;;20.80;79.50;;;21.29;62.61;95079.66;5018828;28;20195;-84
2021/07/19 06:21:17;;;;;;;5.15;3.83;;;20.90;79.60;;;21.42;62.33;95089.06;5010140;28;20261;-85
2021/07/19 06:23:44;;;;;;;4.90;3.70;;;21.00;79.60;;;21.54;62.04;95081.69;5018972;28;20199;-86
2021/07/19 06:26:12;;;;;;;4.57;4.00;;;21.10;79.40;;;21.65;61.60;95082.59;5001543;28;20223;-85
2021/07/19 06:28:40;;;;;;;4.47;3.80;;;21.20;79.40;;;21.75;61.98;95085.31;5024447;28;20203;-85
2021/07/19 06:31:07;;;;;;;4.18;3.75;;;21.30;79.30;;;21.82;61.53;95084.28;5024866;28;20245;-85
2021/07/19 06:33:34;;;;;;;4.03;3.63;;;21.40;79.20;;;21.93;61.35;95087.81;5024078;28;20654;-84
2021/07/19 06:36:01;;;;;;;4.05;3.53;;;21.50;78.90;;;22.02;61.20;95086.25;5020956;28;20713;-85
2021/07/19 06:38:29;;;;;;;5.18;3.22;;;21.60;78.80;;;22.12;61.25;95088.16;5023476;28;20575;-84
2021/07/19 06:40:56;;;;;;;6.07;3.85;;;21.70;78.80;;;22.17;60.84;95089.00;5009483;28;20219;-85
2021/07/19 06:43:23;;;;;;;6.63;4.63;;;21.70;78.60;;;22.28;60.74;95091.72;5021669;28;20239;-84
2021/07/19 06:45:51;;;;;;;7.15;3.67;;;21.80;78.60;;;22.37;60.73;95087.47;4990800;28;20765;-84
2021/07/19 06:48:19;;;;;;;4.47;3.80;;;21.90;78.50;;;22.45;60.56;95089.69;5005170;28;20699;-85
2021/07/19 06:50:46;;;;;;;5.15;3.65;;;22.00;78.20;;;22.51;60.07;95087.84;5012936;28;20211;-85
2021/07/19 06:53:13;;;;;;;4.78;3.35;;;22.10;78.10;;;22.58;60.36;95088.34;5001509;28;20683;-84
2021/07/19 06:55:41;;;;;;;5.32;3.95;;;22.10;78.10;;;22.65;60.11;95096.94;5003189;28;20533;-86
2021/07/19 06:58:08;;;;;;;4.90;3.72;;;22.20;77.90;;;22.74;59.94;95091.06;5021167;28;20201;-85
2021/07/19 07:00:35;;;;;;;4.18;3.50;;;22.30;78.10;;;22.81;59.98;95078.25;5028397;28;20307;-85
2021/07/19 07:03:02;;;;;;;3.90;3.55;;;22.40;78.10;;;22.91;59.93;95088.97;5015542;28;20205;-85
2021/07/19 07:05:30;;;;;;;4.75;3.60;;;22.40;77.90;;;23.01;60.07;95088.19;5024606;28;20312;-86
2021/07/19 07:07:57;;;;;;;4.03;3.63;;;22.50;77.90;;;23.10;59.85;95086.56;5016054;28;20642;-86
2021/07/19 07:10:24;;;;;;;5.68;3.63;;;22.60;77.80;;;23.23;59.47;95081.78;5020814;28;20211;-86
2021/07/19 07:12:52;;;;;;;3.50;3.17;;;22.70;77.70;;;23.31;59.08;95087.44;5008377;28;20234;-86
2021/07/19 07:15:19;;;;;;;4.45;3.45;;;22.80;77.40;;;23.40;58.92;95076.97;5024069;28;20681;-86
2021/07/19 07:17:46;;;;;;;3.92;3.30;;;22.90;77.50;;;23.48;59.28;95075.63;5023997;28;20577;-85
2021/07/19 07:20:13;;;;;;;6.32;3.20;;;22.90;77.30;;;23.57;59.75;95070.53;5011258;28;20291;-84
2021/07/19 07:22:41;;;;;;;5.45;3.22;;;23.00;77.40;;;23.66;58.95;95077.72;5016622;28;20204;-85
2021/07/19 07:25:09;;;;;;;3.47;3.00;;;23.10;77.40;;;23.73;58.69;95069.44;5034642;28;20222;-85
2021/07/19 07:27:39;;;;;;;3.53;3.22;;;23.20;77.20;;;23.80;58.63;95069.13;5038282;28;20199;-84
2021/07/19 07:30:08;;;;;;;6.00;3.00;;;23.30;76.80;;;23.88;58.29;95070.47;5036601;28;20215;-86
2021/07/19 07:32:37;;;;;;;4.47;3.10;;;23.30;76.40;;;23.93;58.31;95068.59;5022510;28;20222;-85
2021/07/19 07:35:06;;;;;;;5.30;3.47;;;23.40;76.10;;;23.98;57.94;95071.25;5032475;28;20219;-86
2021/07/19 07:37:33;;;;;;;3.40;2.95;;;23.50;76.30;;;24.03;57.59;95075.00;5030050;28;20205;-86
2021/07/19 07:40:01;;;;;;;3.85;3.22;;;23.50;76.10;;;24.06;57.60;95071.75;5013091;28;20227;-86
2021/07/19 07:42:29;;;;;;;4.28;3.17;;;23.60;75.80;;;24.07;57.63;95074.19;5026824;28;20212;-85
2021/07/19 07:44:56;;;;;;;3.75;3.15;;;23.60;75.40;;;24.10;57.67;95078.19;5026895;28;20261;-87
2021/07/19 07:47:25;;;;;;;6.00;3.15;;;23.60;75.40;;;24.09;57.12;95058.63;5005838;28;20196;-86
2021/07/19 07:49:52;;;;;;;4.43;3.00;;;23.70;75.20;;;24.17;56.60;95062.63;4985156;28;20216;-86
2021/07/19 07:52:20;;;;;;;4.63;3.13;;;23.70;74.90;;;24.23;57.39;95066.06;5017155;28;20220;-86
2021/07/19 07:54:47;;;;;;;4.55;3.00;;;23.80;75.30;;;24.28;57.38;95066.88;5013644;28;20316;-86
2021/07/19 07:57:15;;;;;;;4.07;2.65;;;23.80;75.20;;;24.36;57.07;95078.09;5025902;28;20204;-85
2021/07/19 07:59:42;;;;;;;3.78;2.85;;;23.80;75.20;;;24.41;56.49;95075.38;4984264;28;20422;-85
2021/07/19 08:02:11;;;;;;;5.00;3.00;;;23.90;75.20;;;24.49;56.58;95069.44;5021108;28;20277;-85
2021/07/19 08:04:40;;;;;;;5.75;3.28;;;23.90;74.70;;;24.56;56.56;95069.13;5002349;28;20339;-85
2021/07/19 08:07:07;;;;;;;4.55;3.03;;;24.00;75.00;;;24.66;56.65;95068.31;5022009;28;20188;-85
2021/07/19 08:09:34;;;;;;;6.05;3.03;;;24.10;75.00;;;24.73;56.01;95060.75;5019559;28;20713;-87
2021/07/19 08:12:02;;;;;;;4.53;3.03;;;24.20;74.70;;;24.86;55.94;95064.69;5017318;28;20302;-86
2021/07/19 08:14:30;;;;;;;6.40;2.70;;;24.20;74.40;;;25.00;55.29;95067.53;5037504;28;20213;-87
2021/07/19 08:16:58;;;;;;;3.60;2.90;;;24.30;74.10;;;25.15;55.46;95059.38;5021012;28;20213;-86
2021/07/19 08:19:32;;;;;;;3.28;2.72;;;24.50;74.20;;;25.33;55.12;95063.28;5032396;28;20222;-87
2021/07/19 08:22:00;;;;;;;5.68;3.10;;;24.50;74.10;;;25.55;54.76;95060.13;5012951;28;20204;-87
2021/07/19 08:24:31;;;;;;;3.72;2.72;;;24.70;73.50;;;25.78;54.22;95056.97;5030442;28;20282;-87
2021/07/19 08:26:58;;;;;;;3.65;2.83;;;24.90;73.80;;;25.92;54.11;95065.94;5018553;28;20307;-86
2021/07/19 08:29:26;;;;;;;5.30;2.83;;;25.00;73.80;;;25.99;53.77;95066.41;5027179;28;20690;-87
2021/07/19 08:31:55;;;;;;;3.92;3.33;;;25.10;73.20;;;25.97;53.29;95073.16;5018017;28;20271;-86
2021/07/19 08:34:23;;;;;;;8.93;3.20;;;25.20;72.50;;;25.85;53.24;95071.69;5019012;28;20307;-87
2021/07/19 08:36:50;;;;;;;4.97;3.10;;;25.30;71.90;;;25.74;52.59;95070.16;5019574;28;20200;-88
2021/07/19 08:39:17;;;;;;;4.03;2.50;;;25.30;71.30;;;25.70;53.46;95077.97;5031356;28;20250;-84
2021/07/19 08:41:45;;;;;;;4.72;3.28;;;25.30;71.70;;;25.73;53.23;95060.50;5021128;28;20192;-85
2021/07/19 08:44:13;;;;;;;4.32;2.58;;;25.30;71.70;;;25.86;53.52;95075.94;5019992;28;20324;-85
2021/07/19 08:46:41;;;;;;;4.35;2.90;;;25.30;72.00;;;26.06;53.64;95076.81;5020770;28;20494;-84
2021/07/19 08:49:09;;;;;;;3.03;2.65;;;25.30;72.00;;;26.21;52.30;95073.19;5008201;28;20719;-85
2021/07/19 08:51:42;;;;;;;4.63;2.72;;;25.50;71.40;;;26.32;52.00;95063.91;5036946;28;20217;-85
2021/07/19 08:54:11;;;;;;;3.35;2.90;;;25.50;70.80;;;26.37;51.24;95071.88;5015214;28;20654;-86
2021/07/19 08:56:40;;;;;;;5.13;2.70;;;25.60;70.90;;;26.40;52.02;95075.88;5000946;28;20235;-86
2021/07/19 08:59:08;;;;;;;4.32;2.90;;;25.70;71.00;;;26.39;52.12;95068.94;5001847;28;20225;-86
2021/07/19 09:01:40;;;;;;;6.32;2.70;;;25.70;70.80;;;26.39;52.22;95070.81;4986550;28;20205;-87
2021/07/19 09:04:12;;;;;;;5.82;2.63;;;25.80;70.60;;;26.47;52.02;95073.66;5036464;28;20189;-87
2021/07/19 09:06:40;;;;;;;5.72;3.10;;;25.80;71.90;;;26.64;52.09;95064.28;5036064;28;20217;-87
2021/07/19 09:09:07;;;;;;;5.25;3.13;;;25.90;71.00;;;26.84;51.90;95071.28;5030747;28;20741;-87
2021/07/19 09:11:34;;;;;;;7.03;3.15;;;26.00;71.10;;;27.03;51.57;95065.13;5032767;28;20317;-87
2021/07/19 09:14:07;;;;;;;4.93;2.47;;;26.10;71.00;;;27.16;51.17;95073.25;5016818;28;20601;-87
2021/07/19 09:16:46;;;;;;;5.38;2.67;;;26.30;70.30;;;27.28;50.52;95066.59;5016101;28;20192;-87
2021/07/19 09:19:26;;;;;;;3.78;2.40;;;26.40;69.80;;;27.39;50.55;95072.59;4984678;28;20220;-86
2021/07/19 09:22:00;;;;;;;3.25;2.67;;;26.50;69.60;;;27.44;50.18;95064.47;5000442;28;20191;-87
2021/07/19 09:24:34;;;;;;;4.88;2.83;;;26.60;69.00;;;27.49;49.93;95064.41;5017233;28;20318;-86
2021/07/19 09:27:01;;;;;;;4.38;2.70;;;26.70;69.30;;;27.68;50.55;95064.31;5016794;28;20565;-86
2021/07/19 09:29:37;;;;;;;4.75;2.58;;;26.80;69.90;;;27.79;49.49;95054.97;4984698;28;20223;-87
2021/07/19 09:32:06;;;;;;;4.40;2.85;;;27.00;68.60;;;27.89;48.93;95055.84;5000992;28;20227;-87
2021/07/19 09:34:34;;;;;;;4.32;2.60;;;27.10;68.60;;;27.92;49.13;95058.75;5000037;28;20220;-87
2021/07/19 09:37:05;;;;;;;4.07;2.63;;;27.20;68.00;;;27.91;48.88;95057.16;5000188;28;20579;-87
2021/07/19 09:39:50;;;;;;;4.07;3.05;;;27.20;67.40;;;27.86;48.57;95057.25;5000860;28;20313;-87
2021/07/19 09:42:20;;;;;;;3.45;2.60;;;27.30;67.60;;;27.83;48.82;95049.78;5016412;28;20649;-87
2021/07/19 09:44:59;;;;;;;5.40;2.95;;;27.30;67.80;;;27.80;49.15;95053.06;5000415;28;20228;-87
2021/07/19 09:47:40;;;;;;;4.35;2.70;;;27.30;67.50;;;27.75;49.11;95055.84;5000232;28;20265;-87
2021/07/19 09:50:17;;;;;;;4.15;2.90;;;27.30;67.80;;;27.77;48.74;95051.75;5000137;28;20218;-87
2021/07/19 09:52:45;;;;;;;8.05;2.83;;;27.20;67.40;;;27.86;48.84;95048.38;5016512;28;20207;-87
2021/07/19 09:55:22;;;;;;;4.03;2.60;;;27.30;67.80;;;27.91;48.06;95049.06;5000190;28;20208;-86
2021/07/19 09:58:00;;;;;;;3.35;2.55;;;27.30;67.30;;;27.95;48.02;95051.97;5016206;28;20211;-87
2021/07/19 10:00:29;;;;;;;4.40;2.45;;;27.30;66.90;;;27.92;48.92;95044.50;5016483;28;20267;-87
2021/07/19 10:02:57;;;;;;;5.10;2.80;;;27.30;67.50;;;27.87;48.48;95033.78;5016245;28;20201;-86
2021/07/19 10:05:30;;;;;;;4.35;2.70;;;27.40;67.20;;;27.89;48.79;95037.81;5016002;28;20213;-87
2021/07/19 10:08:01;;;;;;;3.92;2.60;;;27.40;67.30;;;27.95;48.18;95042.00;5016127;28;20213;-87
2021/07/19 10:10:39;;;;;;;3.35;2.75;;;27.40;67.20;;;28.01;48.35;95048.06;5000024;28;20223;-87
2021/07/19 10:13:09;;;;;;;4.15;2.60;;;27.40;66.60;;;28.13;48.33;95044.13;5032440;28;20213;-87
2021/07/19 10:15:39;;;;;;;8.15;2.92;;;27.40;66.90;;;28.29;47.54;95042.69;5032296;28;20230;-87
2021/07/19 10:18:09;;;;;;;4.35;3.05;;;27.50;66.90;;;28.50;47.89;95039.56;4999828;28;20256;-87
2021/07/19 10:20:38;;;;;;;3.40;2.15;;;27.60;66.90;;;28.69;47.45;95025.97;5016429;28;20622;-85
2021/07/19 10:23:06;;;;;;;2.80;2.10;;;27.70;66.40;;;28.81;46.50;95017.31;5015416;28;20263;-87
2021/07/19 10:25:38;;;;;;;4.50;2.63;;;27.80;66.30;;;28.92;46.52;95019.47;5015952;28;20230;-86
2021/07/19 10:28:06;;;;;;;5.80;2.53;;;28.00;66.00;;;29.04;46.77;95018.91;4999801;28;20305;-87
2021/07/19 10:30:34;;;;;;;6.95;2.95;;;28.10;66.20;;;29.09;44.95;95023.41;4999584;28;20761;-86
2021/07/19 10:33:03;;;;;;;5.20;2.65;;;28.20;66.20;;;29.03;45.85;95021.94;4999381;28;20230;-87
2021/07/19 10:35:31;;;;;;;3.50;2.25;;;28.20;65.10;;;28.96;45.67;95016.16;4999449;28;20249;-87